Time;durP1;ratioP1;P1;durP2;ratioP2;P2;SDS_P1;SDS_P2;PMS_P1;PMS_P2;Temp;Humidity;BMP_temperature;BMP_pressure;BME280_temperature;BME280_humidity;BME280_pressure;Samples;Min_cycle;Max_cycle;Signal;HPM_P1;HPM_P2
2022/03/11 00:00:27;;;;;;;;;;;-2.30;83.50;;;;;;5032036;28;20282;-73
2022/03/11 00:02:52;;;;;;;;;;;-2.30;84.70;;;;;;5031715;28;19924;-73
2022/03/11 00:05:18;;;;;;;;;;;-2.20;84.60;;;;;;5031538;28;20300;-73
2022/03/11 00:07:43;;;;;;;;;;;-2.30;84.60;;;;;;5031774;28;19940;-73
2022/03/11 00:10:09;;;;;;;;;;;-2.40;84.30;;;;;;5031775;28;19956;-73
2022/03/11 00:12:37;;;;;;;;;;;-2.50;85.30;;;;;;5031726;28;20373;-73
2022/03/11 00:15:04;;;;;;;;;;;-2.60;86.00;;;;;;5034027;28;19917;-73
2022/03/11 00:17:30;;;;;;;;;;;-2.60;87.40;;;;;;5044647;28;20282;-73
2022/03/11 00:19:55;;;;;;;;;;;-2.50;87.00;;;;;;5042227;28;19909;-73
2022/03/11 00:22:21;;;;;;;;;;;-2.30;85.50;;;;;;5034406;28;19952;-73
2022/03/11 00:24:47;;;;;;;;;;;-2.20;84.80;;;;;;5031534;28;20353;-73
2022/03/11 00:27:12;;;;;;;;;;;-2.10;84.50;;;;;;5031778;28;19960;-73
2022/03/11 00:29:37;;;;;;;;;;;-2.10;84.40;;;;;;5035774;28;20353;-73
2022/03/11 00:32:03;;;;;;;;;;;-2.20;84.40;;;;;;5035236;28;19913;-73
2022/03/11 00:34:29;;;;;;;;;;;-2.50;84.90;;;;;;5034872;28;19910;-73
2022/03/11 00:36:54;;;;;;;;;;;-2.80;86.50;;;;;;5035343;28;19909;-73
2022/03/11 00:39:20;;;;;;;;;;;-2.60;87.50;;;;;;5035093;28;19971;-73
2022/03/11 00:41:46;;;;;;;;;;;-2.40;86.50;;;;;;5035015;28;19971;-73
2022/03/11 00:44:12;;;;;;;;;;;-2.70;86.40;;;;;;5034751;28;20359;-73
2022/03/11 00:46:37;;;;;;;;;;;-2.70;87.50;;;;;;5035220;28;19916;-73
2022/03/11 00:49:03;;;;;;;;;;;-2.70;88.00;;;;;;5044047;28;19913;-73
2022/03/11 00:51:29;;;;;;;;;;;-2.90;87.80;;;;;;5034739;28;19909;-73
2022/03/11 00:53:54;;;;;;;;;;;-2.90;89.00;;;;;;5053849;28;19916;-73
2022/03/11 00:56:20;;;;;;;;;;;-2.70;89.40;;;;;;5053916;28;20280;-73
2022/03/11 00:58:46;;;;;;;;;;;-2.60;89.00;;;;;;5053833;28;20266;-73
2022/03/11 01:01:12;;;;;;;;;;;-2.60;89.00;;;;;;5053858;28;19916;-73
2022/03/11 01:03:37;;;;;;;;;;;-2.60;89.70;;;;;;5053316;28;20286;-73
2022/03/11 01:06:03;;;;;;;;;;;-2.70;90.20;;;;;;5053787;28;19912;-73
2022/03/11 01:08:28;;;;;;;;;;;-2.90;89.40;;;;;;5053660;28;20346;-73
2022/03/11 01:10:54;;;;;;;;;;;-3.30;90.20;;;;;;5053685;28;19942;-73
2022/03/11 01:13:19;;;;;;;;;;;-3.20;90.60;;;;;;5053309;28;19916;-73
2022/03/11 01:15:45;;;;;;;;;;;-3.20;91.20;;;;;;5053712;28;19917;-73
2022/03/11 01:18:10;;;;;;;;;;;-3.10;91.10;;;;;;5054280;28;19910;-73
2022/03/11 01:20:36;;;;;;;;;;;-3.00;90.80;;;;;;5041906;28;19909;-73
2022/03/11 01:23:01;;;;;;;;;;;-3.00;90.80;;;;;;5034193;28;19913;-73
2022/03/11 01:25:27;;;;;;;;;;;-2.90;91.00;;;;;;5037270;28;19912;-73
2022/03/11 01:27:52;;;;;;;;;;;-3.00;90.90;;;;;;5037482;28;19971;-73
2022/03/11 01:30:18;;;;;;;;;;;-3.10;91.30;;;;;;5034626;28;19920;-73
2022/03/11 01:32:43;;;;;;;;;;;-3.30;91.60;;;;;;5033948;28;19954;-73
2022/03/11 01:35:10;;;;;;;;;;;-3.30;91.90;;;;;;5033797;28;20359;-73
2022/03/11 01:37:35;;;;;;;;;;;-3.00;91.70;;;;;;5034279;28;20336;-73
2022/03/11 01:40:01;;;;;;;;;;;-2.90;91.70;;;;;;5033605;28;19909;-73
2022/03/11 01:42:27;;;;;;;;;;;-2.70;91.70;;;;;;5033819;28;19939;-73
2022/03/11 01:44:53;;;;;;;;;;;-2.60;91.70;;;;;;5034015;28;19913;-73
2022/03/11 01:47:18;;;;;;;;;;;-2.60;91.50;;;;;;5034686;28;19916;-73
2022/03/11 01:49:44;;;;;;;;;;;-3.00;91.60;;;;;;5055586;28;19942;-73
2022/03/11 01:52:11;;;;;;;;;;;-3.00;92.40;;;;;;5036921;28;20317;-73
2022/03/11 01:54:39;;;;;;;;;;;-3.20;92.50;;;;;;5033600;28;19916;-73
2022/03/11 01:57:04;;;;;;;;;;;-3.30;93.30;;;;;;5033769;28;19909;-73
2022/03/11 01:59:30;;;;;;;;;;;-3.40;93.30;;;;;;5033609;28;20012;-73
2022/03/11 02:01:56;;;;;;;;;;;-3.20;93.00;;;;;;5033396;28;19910;-74
2022/03/11 02:04:21;;;;;;;;;;;-3.20;93.30;;;;;;5032950;28;19920;-73
2022/03/11 02:06:49;;;;;;;;;;;-3.10;93.60;;;;;;5033551;28;19909;-73
2022/03/11 02:09:14;;;;;;;;;;;-3.20;93.70;;;;;;5033388;28;20389;-73
2022/03/11 02:11:40;;;;;;;;;;;-3.10;93.70;;;;;;5033270;28;19909;-73
2022/03/11 02:14:05;;;;;;;;;;;-3.30;94.20;;;;;;5033238;28;19909;-73
2022/03/11 02:16:32;;;;;;;;;;;-3.50;95.60;;;;;;5032760;28;19983;-73
2022/03/11 02:18:58;;;;;;;;;;;-3.50;95.90;;;;;;5041781;28;19913;-73
2022/03/11 02:21:26;;;;;;;;;;;-3.50;96.30;;;;;;5033309;28;19963;-73
2022/03/11 02:23:53;;;;;;;;;;;-3.40;96.10;;;;;;5032976;28;19963;-73
2022/03/11 02:26:20;;;;;;;;;;;-3.40;96.00;;;;;;5033204;28;19955;-73
2022/03/11 02:28:46;;;;;;;;;;;-3.20;95.90;;;;;;5033074;28;19916;-73
2022/03/11 02:31:11;;;;;;;;;;;-3.40;96.30;;;;;;5032998;28;20008;-73
2022/03/11 02:33:37;;;;;;;;;;;-3.70;97.10;;;;;;5032622;28;19948;-73
2022/03/11 02:36:03;;;;;;;;;;;-3.90;98.00;;;;;;5033330;28;20321;-73
2022/03/11 02:38:29;;;;;;;;;;;-3.80;98.50;;;;;;5032897;28;19909;-73
2022/03/11 02:40:55;;;;;;;;;;;-3.80;99.10;;;;;;5033298;28;20382;-74
2022/03/11 02:43:20;;;;;;;;;;;-3.80;99.30;;;;;;5032389;28;19968;-73
2022/03/11 02:45:46;;;;;;;;;;;-3.90;99.40;;;;;;5032700;28;19949;-73
2022/03/11 02:48:11;;;;;;;;;;;-3.90;99.90;;;;;;5047348;28;19975;-73
2022/03/11 02:50:37;;;;;;;;;;;-3.80;99.70;;;;;;5039722;28;19915;-73
2022/03/11 02:53:02;;;;;;;;;;;-3.80;99.90;;;;;;5032654;28;19929;-73
2022/03/11 02:55:28;;;;;;;;;;;-4.00;99.90;;;;;;5032482;28;19915;-73
2022/03/11 02:57:53;;;;;;;;;;;-4.20;99.90;;;;;;5032603;28;19909;-73
2022/03/11 03:00:19;;;;;;;;;;;-4.20;99.90;;;;;;5032465;28;19920;-74
2022/03/11 03:02:44;;;;;;;;;;;-4.20;99.90;;;;;;5032358;28;19920;-74
2022/03/11 03:05:10;;;;;;;;;;;-4.20;99.90;;;;;;5032331;28;19960;-73
2022/03/11 03:07:36;;;;;;;;;;;-4.30;99.90;;;;;;5032489;28;19917;-74
2022/03/11 03:10:02;;;;;;;;;;;-4.10;99.90;;;;;;5031159;28;19916;-74
2022/03/11 03:12:27;;;;;;;;;;;-4.10;99.90;;;;;;5032812;28;19910;-74
2022/03/11 03:14:53;;;;;;;;;;;-4.20;99.90;;;;;;5031982;28;19913;-74
2022/03/11 03:17:19;;;;;;;;;;;-4.00;99.90;;;;;;5033322;28;20394;-73
2022/03/11 03:19:45;;;;;;;;;;;-3.90;99.90;;;;;;5048628;28;19908;-74
2022/03/11 03:22:11;;;;;;;;;;;-3.70;99.90;;;;;;5039323;28;19909;-73
2022/03/11 03:24:37;;;;;;;;;;;-3.70;99.90;;;;;;5038306;28;19909;-73
2022/03/11 03:27:02;;;;;;;;;;;-3.80;99.90;;;;;;5051342;28;19909;-73
2022/03/11 03:29:28;;;;;;;;;;;-3.70;99.90;;;;;;5050998;28;20259;-73
2022/03/11 03:31:57;;;;;;;;;;;-3.70;99.90;;;;;;5051270;28;19962;-73
2022/03/11 03:34:41;;;;;;;;;;;-3.70;99.90;;;;;;5031541;28;20408;-73
2022/03/11 03:37:08;;;;;;;;;;;-3.60;99.90;;;;;;5032155;28;19963;-73
2022/03/11 03:39:34;;;;;;;;;;;-3.80;99.90;;;;;;5031741;28;19913;-74
2022/03/11 03:42:00;;;;;;;;;;;-4.00;99.90;;;;;;5031965;28;19934;-74
2022/03/11 03:44:25;;;;;;;;;;;-4.20;99.90;;;;;;5031759;28;20365;-73
2022/03/11 03:46:51;;;;;;;;;;;-4.30;99.90;;;;;;5033551;28;19917;-74
2022/03/11 03:49:16;;;;;;;;;;;-4.30;99.90;;;;;;5039273;28;19909;-74
2022/03/11 03:51:42;;;;;;;;;;;-4.50;99.90;;;;;;5031925;28;19909;-74
2022/03/11 03:54:10;;;;;;;;;;;-4.50;99.90;;;;;;5031741;28;19916;-73
2022/03/11 03:56:39;;;;;;;;;;;-4.50;99.90;;;;;;5031864;28;20002;-73
2022/03/11 03:59:05;;;;;;;;;;;-4.50;99.90;;;;;;5031856;28;19909;-74
2022/03/11 04:01:32;;;;;;;;;;;-4.50;99.90;;;;;;5032229;28;19916;-74
2022/03/11 04:03:57;;;;;;;;;;;-4.60;99.90;;;;;;5035545;28;19920;-73
2022/03/11 04:06:23;;;;;;;;;;;-4.50;99.90;;;;;;5035959;28;20344;-73
2022/03/11 04:08:48;;;;;;;;;;;-4.50;99.90;;;;;;5035791;28;19916;-74
2022/03/11 04:11:14;;;;;;;;;;;-4.60;99.90;;;;;;5035475;28;20020;-73
2022/03/11 04:13:39;;;;;;;;;;;-4.60;99.90;;;;;;5035462;28;20001;-73
2022/03/11 04:16:05;;;;;;;;;;;-4.50;99.90;;;;;;5035442;28;19917;-74
2022/03/11 04:18:30;;;;;;;;;;;-4.40;99.90;;;;;;5045921;28;20063;-73
2022/03/11 04:20:56;;;;;;;;;;;-4.60;99.90;;;;;;5041509;28;19909;-73
2022/03/11 04:23:21;;;;;;;;;;;-4.70;99.90;;;;;;5035160;28;20446;-73
2022/03/11 04:25:47;;;;;;;;;;;-4.80;99.90;;;;;;5040522;28;19913;-74
2022/03/11 04:28:12;;;;;;;;;;;-4.90;99.90;;;;;;5045680;28;19948;-73
2022/03/11 04:30:38;;;;;;;;;;;-4.80;99.90;;;;;;5035330;28;19979;-73
2022/03/11 04:33:03;;;;;;;;;;;-4.60;99.90;;;;;;5035224;28;19913;-73
2022/03/11 04:35:29;;;;;;;;;;;-4.70;99.90;;;;;;5035055;28;20012;-73
2022/03/11 04:37:54;;;;;;;;;;;-4.70;99.90;;;;;;5035185;28;19909;-73
2022/03/11 04:40:20;;;;;;;;;;;-4.80;99.90;;;;;;5035083;28;19916;-73
2022/03/11 04:42:45;;;;;;;;;;;-4.80;99.90;;;;;;5036735;28;19913;-74
2022/03/11 04:45:11;;;;;;;;;;;-4.90;99.90;;;;;;5049785;28;19909;-73
2022/03/11 04:47:36;;;;;;;;;;;-5.00;99.90;;;;;;5038228;28;19909;-73
2022/03/11 04:50:02;;;;;;;;;;;-5.10;99.90;;;;;;5035242;28;19909;-73
2022/03/11 04:52:27;;;;;;;;;;;-5.10;99.90;;;;;;5034839;28;19913;-74
2022/03/11 04:54:53;;;;;;;;;;;-5.00;99.90;;;;;;5036416;28;20020;-73
2022/03/11 04:57:18;;;;;;;;;;;-4.90;99.90;;;;;;5040598;28;20329;-73
2022/03/11 04:59:44;;;;;;;;;;;-4.90;99.90;;;;;;5034780;28;19917;-73
2022/03/11 05:02:09;;;;;;;;;;;-4.90;99.90;;;;;;5034719;28;19909;-73
2022/03/11 05:04:35;;;;;;;;;;;-4.80;99.90;;;;;;5034470;28;19913;-73
2022/03/11 05:07:00;;;;;;;;;;;-4.60;99.90;;;;;;5034753;28;19909;-73
2022/03/11 05:09:26;;;;;;;;;;;-4.40;99.90;;;;;;5034435;28;19909;-73
2022/03/11 05:11:51;;;;;;;;;;;-4.30;99.90;;;;;;5034419;28;19909;-73
2022/03/11 05:14:17;;;;;;;;;;;-4.40;99.90;;;;;;5033503;28;19916;-73
2022/03/11 05:16:42;;;;;;;;;;;-4.60;99.90;;;;;;5034499;28;20391;-73
2022/03/11 05:19:08;;;;;;;;;;;-4.70;99.90;;;;;;5034403;28;20059;-73
2022/03/11 05:21:33;;;;;;;;;;;-4.70;99.90;;;;;;5034242;28;19909;-73
2022/03/11 05:23:59;;;;;;;;;;;-4.70;99.90;;;;;;5033901;28;20393;-73
2022/03/11 05:26:25;;;;;;;;;;;-4.80;99.90;;;;;;5043926;28;20011;-73
2022/03/11 05:28:59;;;;;;;;;;;-4.90;99.90;;;;;;5044619;28;20033;-73
2022/03/11 05:31:26;;;;;;;;;;;-5.10;99.90;;;;;;5034128;28;20438;-73
2022/03/11 05:33:52;;;;;;;;;;;-5.00;99.90;;;;;;5033862;28;20000;-73
2022/03/11 05:36:17;;;;;;;;;;;-5.00;99.90;;;;;;5053484;28;19960;-73
2022/03/11 05:38:43;;;;;;;;;;;-5.00;99.90;;;;;;5052957;28;20377;-73
2022/03/11 05:41:09;;;;;;;;;;;-4.90;99.90;;;;;;5053131;28;19996;-73
2022/03/11 05:43:36;;;;;;;;;;;-5.00;99.90;;;;;;5052651;28;19920;-73
2022/03/11 05:46:02;;;;;;;;;;;-5.10;99.90;;;;;;5053078;28;19992;-73
2022/03/11 05:48:27;;;;;;;;;;;-5.20;99.90;;;;;;5051233;28;20396;-73
2022/03/11 05:50:53;;;;;;;;;;;-5.10;99.90;;;;;;5052632;28;19927;-73
2022/03/11 05:53:18;;;;;;;;;;;-5.00;99.90;;;;;;5052345;28;20686;-73
2022/03/11 05:55:44;;;;;;;;;;;-5.10;99.90;;;;;;5044002;28;19932;-73
2022/03/11 05:58:09;;;;;;;;;;;-5.10;99.90;;;;;;5045490;28;19941;-74
2022/03/11 06:00:35;;;;;;;;;;;-5.10;99.90;;;;;;5035524;28;19909;-73
2022/03/11 06:03:00;;;;;;;;;;;-5.20;99.90;;;;;;5033842;28;19929;-73
2022/03/11 06:05:26;;;;;;;;;;;-5.10;99.90;;;;;;5034537;28;20270;-73
2022/03/11 06:07:51;;;;;;;;;;;-5.10;99.90;;;;;;5034276;28;19940;-73
2022/03/11 06:10:17;;;;;;;;;;;-5.20;99.90;;;;;;5036637;28;20358;-73
2022/03/11 06:12:42;;;;;;;;;;;-5.00;99.90;;;;;;5053504;28;19951;-72
2022/03/11 06:15:09;;;;;;;;;;;-5.00;99.90;;;;;;5052971;28;19920;-73
2022/03/11 06:17:34;;;;;;;;;;;-4.80;99.90;;;;;;5053770;28;19924;-72
2022/03/11 06:20:00;;;;;;;;;;;-4.70;99.90;;;;;;5053218;28;19909;-73
2022/03/11 06:22:25;;;;;;;;;;;-4.50;99.90;;;;;;5051893;28;19951;-73
2022/03/11 06:24:51;;;;;;;;;;;-4.30;99.90;;;;;;5045358;28;20017;-73
2022/03/11 06:27:16;;;;;;;;;;;-4.20;99.90;;;;;;5038852;28;19915;-73
2022/03/11 06:29:42;;;;;;;;;;;-4.20;99.90;;;;;;5034055;28;19916;-73
2022/03/11 06:32:07;;;;;;;;;;;-4.20;99.90;;;;;;5032958;28;19956;-73
2022/03/11 06:34:33;;;;;;;;;;;-4.30;99.90;;;;;;5042524;28;20336;-73
2022/03/11 06:36:58;;;;;;;;;;;-4.30;99.90;;;;;;5045340;28;20397;-73
2022/03/11 06:39:24;;;;;;;;;;;-4.30;99.90;;;;;;5045814;28;20261;-73
2022/03/11 06:41:50;;;;;;;;;;;-4.30;99.90;;;;;;5033469;28;19916;-73
2022/03/11 06:44:16;;;;;;;;;;;-4.20;99.90;;;;;;5032997;28;19919;-72
2022/03/11 06:46:42;;;;;;;;;;;-4.10;99.90;;;;;;5052928;28;20362;-73
2022/03/11 06:49:07;;;;;;;;;;;-4.10;99.90;;;;;;5052579;28;19915;-72
2022/03/11 06:51:33;;;;;;;;;;;-4.00;99.90;;;;;;5052367;28;19913;-73
2022/03/11 06:53:58;;;;;;;;;;;-4.00;99.90;;;;;;5049767;28;19913;-72
2022/03/11 06:56:24;;;;;;;;;;;-3.90;99.90;;;;;;5045635;28;19908;-72
2022/03/11 06:58:49;;;;;;;;;;;-3.70;99.90;;;;;;5038143;28;20011;-73
2022/03/11 07:01:17;;;;;;;;;;;-3.60;99.90;;;;;;5036498;28;19909;-73
2022/03/11 07:03:43;;;;;;;;;;;-3.40;99.90;;;;;;5047504;28;19913;-72
2022/03/11 07:06:08;;;;;;;;;;;-3.40;99.90;;;;;;5043604;28;20039;-72
2022/03/11 07:08:34;;;;;;;;;;;-3.30;99.90;;;;;;5039188;28;19909;-72
2022/03/11 07:10:59;;;;;;;;;;;-3.20;99.90;;;;;;5043245;28;19914;-72
2022/03/11 07:13:25;;;;;;;;;;;-3.10;99.90;;;;;;5038321;28;20327;-72
2022/03/11 07:15:51;;;;;;;;;;;-3.00;99.90;;;;;;5038148;28;19917;-73
2022/03/11 07:18:16;;;;;;;;;;;-2.90;99.90;;;;;;5043989;28;19947;-72
2022/03/11 07:20:42;;;;;;;;;;;-2.80;99.90;;;;;;5034537;28;19975;-73
2022/03/11 07:23:07;;;;;;;;;;;-2.60;99.90;;;;;;5032185;28;20019;-72
2022/03/11 07:25:34;;;;;;;;;;;-2.50;99.90;;;;;;5036115;28;19952;-73
2022/03/11 07:28:00;;;;;;;;;;;-2.30;99.90;;;;;;5042284;28;20008;-72
2022/03/11 07:30:25;;;;;;;;;;;-2.10;99.90;;;;;;5041460;28;19956;-72
2022/03/11 07:32:52;;;;;;;;;;;-1.70;99.90;;;;;;5043550;28;19959;-72
2022/03/11 07:35:18;;;;;;;;;;;-1.50;99.90;;;;;;5036792;28;19909;-72
2022/03/11 07:37:44;;;;;;;;;;;-1.40;99.90;;;;;;5035207;28;19909;-72
2022/03/11 07:40:11;;;;;;;;;;;-1.30;99.90;;;;;;5032314;28;19963;-72
2022/03/11 07:42:38;;;;;;;;;;;-1.10;99.90;;;;;;5030908;28;19936;-72
2022/03/11 07:45:04;;;;;;;;;;;-0.90;99.90;;;;;;5030989;28;20075;-72
2022/03/11 07:47:29;;;;;;;;;;;-0.80;99.90;;;;;;5030796;28;19941;-72
2022/03/11 07:49:55;;;;;;;;;;;-0.70;99.90;;;;;;5030332;28;19909;-72
2022/03/11 07:52:22;;;;;;;;;;;-0.50;99.90;;;;;;5030859;28;19909;-72
2022/03/11 07:54:47;;;;;;;;;;;-0.20;99.90;;;;;;5042088;28;19943;-72
2022/03/11 07:57:13;;;;;;;;;;;0.10;99.50;;;;;;5035257;28;19948;-72
2022/03/11 07:59:41;;;;;;;;;;;0.40;98.40;;;;;;5030687;28;19937;-72
2022/03/11 08:02:07;;;;;;;;;;;0.60;98.20;;;;;;5030748;28;19914;-72
2022/03/11 08:04:32;;;;;;;;;;;0.80;97.60;;;;;;5049244;28;19941;-72
2022/03/11 08:07:01;;;;;;;;;;;1.00;97.90;;;;;;5049862;28;19909;-72
2022/03/11 08:09:28;;;;;;;;;;;1.10;97.50;;;;;;5049660;28;20369;-72
2022/03/11 08:11:54;;;;;;;;;;;1.30;96.30;;;;;;5048921;28;20377;-72
2022/03/11 08:14:19;;;;;;;;;;;2.30;94.90;;;;;;5049037;28;20163;-72
2022/03/11 08:16:45;;;;;;;;;;;5.00;90.40;;;;;;5049420;28;20004;-72
2022/03/11 08:19:10;;;;;;;;;;;6.90;80.10;;;;;;5049222;28;19934;-70
2022/03/11 08:21:36;;;;;;;;;;;7.30;72.20;;;;;;5048872;28;19909;-70
2022/03/11 08:24:01;;;;;;;;;;;8.30;69.70;;;;;;5041610;28;20378;-70
2022/03/11 08:26:27;;;;;;;;;;;8.10;67.30;;;;;;5043236;28;19949;-71
2022/03/11 08:28:53;;;;;;;;;;;9.00;65.40;;;;;;5030380;28;19916;-71
2022/03/11 08:31:19;;;;;;;;;;;9.90;64.30;;;;;;5035477;28;19910;-71
2022/03/11 08:33:44;;;;;;;;;;;9.70;61.70;;;;;;5034383;28;19913;-71
2022/03/11 08:36:10;;;;;;;;;;;10.80;59.00;;;;;;5029867;28;20378;-71
2022/03/11 08:38:35;;;;;;;;;;;10.30;58.20;;;;;;5029988;28;19938;-70
2022/03/11 08:41:03;;;;;;;;;;;10.70;57.10;;;;;;5029476;28;20286;-70
2022/03/11 08:43:29;;;;;;;;;;;10.80;56.40;;;;;;5029253;28;19920;-70
2022/03/11 08:45:54;;;;;;;;;;;11.30;54.60;;;;;;5029746;28;19909;-71
2022/03/11 08:48:20;;;;;;;;;;;11.30;55.80;;;;;;5028721;28;20301;-71
2022/03/11 08:50:45;;;;;;;;;;;12.40;54.30;;;;;;5033125;28;19910;-71
2022/03/11 08:53:11;;;;;;;;;;;13.00;53.90;;;;;;5035799;28;20389;-71
2022/03/11 08:55:37;;;;;;;;;;;13.00;50.00;;;;;;5044581;28;19909;-71
2022/03/11 08:58:03;;;;;;;;;;;13.30;51.60;;;;;;5033059;28;19944;-71
2022/03/11 09:00:28;;;;;;;;;;;13.40;49.50;;;;;;5032480;28;19940;-71
2022/03/11 09:02:54;;;;;;;;;;;13.40;50.20;;;;;;5048092;28;20289;-71
2022/03/11 09:05:20;;;;;;;;;;;14.00;49.80;;;;;;5039366;28;19909;-71
2022/03/11 09:07:47;;;;;;;;;;;14.60;49.30;;;;;;5033203;28;19916;-71
2022/03/11 09:10:13;;;;;;;;;;;13.80;47.90;;;;;;5032923;28;19913;-71
2022/03/11 09:12:39;;;;;;;;;;;12.80;48.90;;;;;;5032769;28;20186;-71
2022/03/11 09:15:05;;;;;;;;;;;14.30;48.90;;;;;;5032756;28;19995;-71
2022/03/11 09:17:31;;;;;;;;;;;14.60;48.60;;;;;;5032685;28;20432;-71
2022/03/11 09:19:58;;;;;;;;;;;14.90;47.60;;;;;;5032814;28;19909;-72
2022/03/11 09:22:24;;;;;;;;;;;15.10;47.00;;;;;;5031246;28;20185;-71
2022/03/11 09:24:50;;;;;;;;;;;15.90;45.50;;;;;;5038373;28;20353;-71
2022/03/11 09:27:18;;;;;;;;;;;15.30;46.30;;;;;;5043284;28;20009;-71
2022/03/11 09:29:43;;;;;;;;;;;15.90;44.20;;;;;;5057348;28;19958;-71
2022/03/11 09:32:09;;;;;;;;;;;15.30;46.00;;;;;;5039010;28;19913;-72
2022/03/11 09:34:36;;;;;;;;;;;15.30;42.70;;;;;;5037747;28;19913;-71
2022/03/11 09:37:02;;;;;;;;;;;16.00;44.50;;;;;;5032467;28;20183;-72
2022/03/11 09:39:27;;;;;;;;;;;16.00;42.40;;;;;;5042853;28;19910;-71
2022/03/11 09:41:53;;;;;;;;;;;16.70;43.90;;;;;;5031967;28;19967;-72
2022/03/11 09:44:19;;;;;;;;;;;18.00;42.40;;;;;;5051260;28;20011;-72
2022/03/11 09:46:45;;;;;;;;;;;17.40;40.30;;;;;;5051664;28;19912;-72
2022/03/11 09:49:14;;;;;;;;;;;17.70;42.60;;;;;;5045268;28;19910;-71
2022/03/11 09:51:41;;;;;;;;;;;17.10;40.80;;;;;;5032334;28;20381;-71
2022/03/11 09:54:07;;;;;;;;;;;17.40;42.80;;;;;;5031924;28;20293;-71
2022/03/11 09:56:38;;;;;;;;;;;17.00;41.00;;;;;;5032207;28;19909;-71
2022/03/11 09:59:04;;;;;;;;;;;16.90;41.80;;;;;;5044811;28;19913;-72
2022/03/11 10:01:30;;;;;;;;;;;18.30;41.30;;;;;;5050759;28;20278;-72
2022/03/11 10:03:55;;;;;;;;;;;17.80;41.30;;;;;;5050858;28;19917;-72
2022/03/11 10:06:36;;;;;;;;;;;18.60;39.20;;;;;;5051470;28;19967;-72
2022/03/11 10:09:02;;;;;;;;;;;18.50;41.20;;;;;;5050924;28;20040;-72
2022/03/11 10:11:28;;;;;;;;;;;18.60;40.00;;;;;;5043339;28;20366;-72
2022/03/11 10:13:54;;;;;;;;;;;19.90;38.50;;;;;;5050795;28;19913;-72
2022/03/11 10:16:20;;;;;;;;;;;20.10;37.50;;;;;;5049365;28;20370;-72
2022/03/11 10:19:13;;;;;;;;;;;18.70;39.90;;;;;;5049668;28;19998;-72
2022/03/11 10:21:40;;;;;;;;;;;19.70;38.50;;;;;;5036424;28;19910;-73
2022/03/11 10:24:07;;;;;;;;;;;20.80;36.50;;;;;;5030851;28;20358;-72
2022/03/11 10:26:34;;;;;;;;;;;21.00;35.90;;;;;;5040544;28;20278;-72
2022/03/11 10:29:00;;;;;;;;;;;20.90;35.10;;;;;;5039186;28;19932;-72
2022/03/11 10:31:30;;;;;;;;;;;19.20;36.50;;;;;;5037363;28;19916;-72
2022/03/11 10:34:14;;;;;;;;;;;19.50;35.60;;;;;;5055095;28;19916;-72
2022/03/11 10:36:48;;;;;;;;;;;18.90;40.10;;;;;;5032338;28;19913;-72
2022/03/11 10:39:18;;;;;;;;;;;20.10;36.70;;;;;;5045624;28;19913;-72
2022/03/11 10:41:45;;;;;;;;;;;21.70;35.40;;;;;;5050963;28;19917;-73
2022/03/11 10:44:12;;;;;;;;;;;20.00;35.90;;;;;;5051754;28;19912;-72
2022/03/11 10:46:38;;;;;;;;;;;20.10;35.20;;;;;;5051007;28;19909;-72
2022/03/11 10:49:04;;;;;;;;;;;21.70;35.10;;;;;;5050635;28;19913;-72
2022/03/11 10:51:33;;;;;;;;;;;21.90;33.00;;;;;;5050803;28;19992;-73
2022/03/11 10:54:00;;;;;;;;;;;21.70;36.20;;;;;;5047913;28;19971;-72
2022/03/11 10:56:29;;;;;;;;;;;20.10;34.50;;;;;;5048682;28;20362;-72
2022/03/11 10:58:56;;;;;;;;;;;20.20;34.70;;;;;;5031557;28;19917;-72
2022/03/11 11:01:35;;;;;;;;;;;21.10;33.60;;;;;;5035373;28;20356;-73
2022/03/11 11:04:02;;;;;;;;;;;22.30;34.60;;;;;;5038133;28;19913;-72
2022/03/11 11:06:28;;;;;;;;;;;22.30;34.00;;;;;;5032711;28;19916;-72
2022/03/11 11:08:54;;;;;;;;;;;22.80;33.10;;;;;;5046499;28;20006;-73
2022/03/11 11:11:20;;;;;;;;;;;23.10;33.00;;;;;;5030284;28;19917;-73
2022/03/11 11:13:46;;;;;;;;;;;21.60;32.80;;;;;;5030823;28;20285;-72
2022/03/11 11:16:11;;;;;;;;;;;22.40;31.70;;;;;;5030490;28;19917;-73
2022/03/11 11:18:39;;;;;;;;;;;21.00;32.30;;;;;;5030675;28;19913;-72
2022/03/11 11:21:07;;;;;;;;;;;22.40;33.20;;;;;;5030708;28;19917;-73
2022/03/11 11:23:33;;;;;;;;;;;22.60;31.40;;;;;;5030062;28;20382;-72
2022/03/11 11:25:59;;;;;;;;;;;23.20;31.60;;;;;;5031354;28;19909;-72
2022/03/11 11:28:26;;;;;;;;;;;23.60;30.90;;;;;;5042151;28;19909;-73
2022/03/11 11:30:56;;;;;;;;;;;24.30;31.00;;;;;;5040738;28;19913;-73
2022/03/11 11:33:22;;;;;;;;;;;23.60;30.00;;;;;;5039455;28;19917;-73
2022/03/11 11:35:54;;;;;;;;;;;23.40;30.20;;;;;;5030667;28;19920;-72
2022/03/11 11:38:29;;;;;;;;;;;24.00;30.00;;;;;;5030881;28;19910;-73
2022/03/11 11:40:55;;;;;;;;;;;22.70;31.30;;;;;;5039743;28;19912;-72
2022/03/11 11:43:31;;;;;;;;;;;22.80;32.20;;;;;;5049290;28;19918;-73
2022/03/11 11:46:03;;;;;;;;;;;23.90;30.70;;;;;;5050423;28;19991;-73
2022/03/11 11:48:31;;;;;;;;;;;25.10;30.60;;;;;;5050090;28;20274;-73
2022/03/11 11:50:57;;;;;;;;;;;25.00;29.60;;;;;;5049785;28;20255;-73
2022/03/11 11:53:32;;;;;;;;;;;23.00;30.10;;;;;;5049501;28;19916;-73
2022/03/11 11:55:58;;;;;;;;;;;23.30;30.10;;;;;;5041711;28;20389;-73
2022/03/11 11:58:24;;;;;;;;;;;20.80;32.30;;;;;;5032640;28;20016;-72
2022/03/11 12:00:56;;;;;;;;;;;19.20;33.00;;;;;;5030654;28;19910;-72
2022/03/11 12:03:41;;;;;;;;;;;14.80;38.70;;;;;;5029889;28;19960;-72
2022/03/11 12:06:07;;;;;;;;;;;13.70;42.00;;;;;;5035149;28;19909;-73
2022/03/11 12:08:39;;;;;;;;;;;13.60;44.40;;;;;;5030314;28;19964;-72
2022/03/11 12:11:05;;;;;;;;;;;13.70;45.20;;;;;;5030139;28;20005;-72
2022/03/11 12:13:31;;;;;;;;;;;13.30;44.60;;;;;;5030230;28;20387;-73
2022/03/11 12:15:57;;;;;;;;;;;12.70;45.60;;;;;;5030257;28;19968;-73
2022/03/11 12:18:55;;;;;;;;;;;12.00;46.30;;;;;;5030052;28;19963;-73
2022/03/11 12:21:39;;;;;;;;;;;12.00;47.70;;;;;;5048949;28;19909;-72
2022/03/11 12:24:24;;;;;;;;;;;12.20;48.30;;;;;;5044450;28;20309;-72
2022/03/11 12:26:49;;;;;;;;;;;12.10;48.40;;;;;;5043040;28;19909;-72
2022/03/11 12:29:42;;;;;;;;;;;12.20;47.70;;;;;;5040274;28;20405;-72
2022/03/11 12:32:09;;;;;;;;;;;12.00;47.30;;;;;;5043883;28;19909;-72
2022/03/11 12:34:35;;;;;;;;;;;11.70;48.20;;;;;;5039814;28;19909;-73
2022/03/11 12:37:00;;;;;;;;;;;11.90;49.30;;;;;;5033842;28;19909;-72
2022/03/11 12:39:29;;;;;;;;;;;11.80;48.00;;;;;;5033275;28;19910;-73
2022/03/11 12:41:55;;;;;;;;;;;11.90;48.20;;;;;;5032390;28;19996;-73
2022/03/11 12:44:20;;;;;;;;;;;11.80;48.80;;;;;;5046691;28;20070;-73
2022/03/11 12:46:46;;;;;;;;;;;11.70;49.10;;;;;;5034125;28;20017;-73
2022/03/11 12:49:14;;;;;;;;;;;11.60;49.80;;;;;;5033497;28;20293;-73
2022/03/11 12:51:40;;;;;;;;;;;11.80;49.30;;;;;;5032933;28;19941;-73
2022/03/11 12:54:15;;;;;;;;;;;11.60;48.30;;;;;;5033030;28;19952;-73
2022/03/11 12:56:41;;;;;;;;;;;11.80;49.60;;;;;;5052557;28;20405;-73
2022/03/11 12:59:07;;;;;;;;;;;11.70;48.90;;;;;;5052503;28;19999;-72
2022/03/11 13:01:35;;;;;;;;;;;11.60;49.40;;;;;;5053840;28;19916;-73
2022/03/11 13:04:00;;;;;;;;;;;11.60;49.30;;;;;;5039237;28;19921;-72
2022/03/11 13:06:26;;;;;;;;;;;11.70;49.20;;;;;;5033288;28;20147;-72
2022/03/11 13:08:51;;;;;;;;;;;11.70;50.40;;;;;;5033467;28;19921;-72
2022/03/11 13:11:17;;;;;;;;;;;11.70;49.60;;;;;;5033398;28;19909;-72
2022/03/11 13:13:43;;;;;;;;;;;11.70;49.40;;;;;;5036990;28;19916;-71
2022/03/11 13:16:08;;;;;;;;;;;11.60;49.60;;;;;;5033475;28;19917;-72
2022/03/11 13:18:35;;;;;;;;;;;11.70;49.90;;;;;;5033322;28;20328;-72
2022/03/11 13:21:05;;;;;;;;;;;11.90;50.00;;;;;;5032951;28;20371;-72
2022/03/11 13:23:31;;;;;;;;;;;11.60;50.20;;;;;;5033420;28;19913;-72
2022/03/11 13:26:17;;;;;;;;;;;11.70;50.20;;;;;;5032699;28;19957;-72
2022/03/11 13:28:45;;;;;;;;;;;11.80;49.80;;;;;;5043443;28;19960;-71
2022/03/11 13:31:14;;;;;;;;;;;11.70;50.00;;;;;;5038154;28;19909;-72
2022/03/11 13:33:40;;;;;;;;;;;11.70;50.10;;;;;;5042531;28;19913;-72
2022/03/11 13:36:08;;;;;;;;;;;12.00;49.50;;;;;;5032504;28;19909;-73
2022/03/11 13:38:35;;;;;;;;;;;11.70;50.40;;;;;;5032958;28;20146;-73
2022/03/11 13:41:00;;;;;;;;;;;11.90;49.90;;;;;;5033246;28;19925;-72
2022/03/11 13:43:26;;;;;;;;;;;12.20;49.70;;;;;;5039571;28;20266;-72
2022/03/11 13:45:52;;;;;;;;;;;12.00;50.70;;;;;;5040100;28;19909;-73
2022/03/11 13:48:20;;;;;;;;;;;12.00;50.40;;;;;;5051324;28;19909;-72
2022/03/11 13:50:46;;;;;;;;;;;11.80;49.20;;;;;;5051337;28;19912;-73
2022/03/11 13:53:11;;;;;;;;;;;12.20;50.30;;;;;;5051202;28;19915;-72
2022/03/11 13:55:38;;;;;;;;;;;12.30;48.70;;;;;;5051577;28;20420;-72
2022/03/11 13:58:25;;;;;;;;;;;12.00;49.40;;;;;;5033543;28;19955;-72
2022/03/11 14:00:51;;;;;;;;;;;11.70;50.00;;;;;;5037674;28;19921;-72
2022/03/11 14:03:17;;;;;;;;;;;11.90;50.70;;;;;;5034193;28;19920;-72
2022/03/11 14:05:44;;;;;;;;;;;12.10;50.50;;;;;;5032196;28;19913;-72
2022/03/11 14:08:10;;;;;;;;;;;12.30;50.50;;;;;;5032100;28;20374;-72
2022/03/11 14:10:36;;;;;;;;;;;12.40;49.20;;;;;;5032379;28;19909;-72
2022/03/11 14:13:06;;;;;;;;;;;12.60;48.30;;;;;;5032486;28;19916;-72
2022/03/11 14:15:32;;;;;;;;;;;12.80;49.00;;;;;;5051154;28;19923;-72